Time,TemperatureF,DewpointF,PressureIn,WindDirection,WindDirectionDegrees,WindSpeedMPH,WindSpeedGustMPH,Humidity,HourlyPrecipIn,Conditions,Clouds,dailyrainin,SolarRadiationWatts/m^2,SoftwareType,DateUTC
2013-01-21 00:12:00,12.0,6.0,29.85,NNW,331,1.0,18.0,77,0.00,,,0.00,0,weatherlink.com 1.10,2013-01-21 05:12:00,
2013-01-21 00:27:00,11.7,6.0,29.85,NW,309,0.0,12.0,76,0.00,,,0.00,0,weatherlink.com 1.10,2013-01-21 05:27:00,
2013-01-21 00:42:00,11.5,5.0,29.85,WNW,294,0.0,15.0,74,0.00,,,0.00,0,weatherlink.com 1.10,2013-01-21 05:42:00,
2013-01-21 00:57:00,11.2,5.0,29.86,NW,311,0.0,12.0,75,0.00,,,0.00,0,weatherlink.com 1.10,2013-01-21 05:57:00,
2013-01-21 01:12:00,10.5,3.0,29.86,NNW,337,7.0,19.0,73,0.00,,,0.00,0,weatherlink.com 1.10,2013-01-21 06:12:00,
2013-01-21 01:28:00,10.3,2.0,29.88,NNE,15,2.0,15.0,70,0.00,,,0.00,0,weatherlink.com 1.10,2013-01-21 06:28:00,
2013-01-21 01:43:00,10.1,2.0,29.89,NW,309,7.0,14.0,70,0.00,,,0.00,0,weatherlink.com 1.10,2013-01-21 06:43:00,
2013-01-21 01:58:00,10.2,2.0,29.89,NW,311,8.0,13.0,69,0.00,,,0.00,0,weatherlink.com 1.10,2013-01-21 06:58:00,
2013-01-21 02:13:00,9.9,2.0,29.90,North,355,13.0,14.0,69,0.00,,,0.00,0,weatherlink.com 1.10,2013-01-21 07:13:00,
2013-01-21 02:28:00,9.9,1.0,29.90,WNW,297,3.0,9.0,68,0.00,,,0.00,0,weatherlink.com 1.10,2013-01-21 07:28:00,
2013-01-21 02:43:00,9.9,1.0,29.91,NW,305,9.0,12.0,68,0.00,,,0.00,0,weatherlink.com 1.10,2013-01-21 07:43:00,
2013-01-21 02:58:00,10.1,1.0,29.91,NW,310,2.0,11.0,66,0.00,,,0.00,0,weatherlink.com 1.10,2013-01-21 07:58:00,
2013-01-21 03:13:00,9.9,1.0,29.91,NW,311,7.0,8.0,66,0.00,,,0.00,0,weatherlink.com 1.10,2013-01-21 08:13:00,
2013-01-21 03:28:00,9.9,0.0,29.91,NW,309,5.0,12.0,64,0.00,,,0.00,0,weatherlink.com 1.10,2013-01-21 08:28:00,
2013-01-21 03:43:00,9.5,0.0,29.91,NNW,329,0.0,21.0,65,0.00,,,0.00,0,weatherlink.com 1.10,2013-01-21 08:43:00,
2013-01-21 03:58:00,9.1,-1.0,29.91,NW,306,1.0,8.0,65,0.00,,,0.00,0,weatherlink.com 1.10,2013-01-21 08:58:00,
2013-01-21 04:13:00,9.4,-1.0,29.92,NW,309,7.0,12.0,63,0.00,,,0.00,0,weatherlink.com 1.10,2013-01-21 09:13:00,
2013-01-21 04:28:00,9.4,-1.0,29.92,NW,313,0.0,11.0,64,0.00,,,0.00,0,weatherlink.com 1.10,2013-01-21 09:28:00,
2013-01-21 04:43:00,9.3,0.0,29.92,NNW,329,0.0,6.0,65,0.00,,,0.00,0,weatherlink.com 1.10,2013-01-21 09:43:00,
2013-01-21 04:58:00,9.0,0.0,29.92,NW,306,0.0,2.0,66,0.00,,,0.00,0,weatherlink.com 1.10,2013-01-21 09:58:00,
2013-01-21 05:13:00,9.2,-1.0,29.92,WNW,298,2.0,9.0,64,0.00,,,0.00,0,weatherlink.com 1.10,2013-01-21 10:13:00,
2013-01-21 05:28:00,8.8,-1.0,29.93,West,281,0.0,7.0,66,0.00,,,0.00,0,weatherlink.com 1.10,2013-01-21 10:28:00,
2013-01-21 05:44:00,8.7,-1.0,29.94,SSW,213,0.0,5.0,66,0.00,,,0.00,0,weatherlink.com 1.10,2013-01-21 10:44:00,
2013-01-21 05:59:00,9.1,1.0,29.95,WNW,288,0.0,10.0,69,0.00,,,0.00,0,weatherlink.com 1.10,2013-01-21 10:59:00,
2013-01-21 06:13:00,9.1,0.0,29.95,WSW,257,0.0,10.0,67,0.00,,,0.00,0,weatherlink.com 1.10,2013-01-21 11:13:00,
2013-01-21 06:29:00,9.1,1.0,29.96,SW,223,0.0,11.0,69,0.00,,,0.00,0,weatherlink.com 1.10,2013-01-21 11:29:00,
2013-01-21 06:44:00,9.2,1.0,29.96,NW,309,1.0,8.0,69,0.00,,,0.00,0,weatherlink.com 1.10,2013-01-21 11:44:00,
2013-01-21 06:59:00,9.1,1.0,29.96,West,260,0.0,6.0,70,0.00,,,0.00,0,weatherlink.com 1.10,2013-01-21 11:59:00,
2013-01-21 07:14:00,9.2,1.0,29.96,NW,308,0.0,7.0,70,0.00,,,0.00,0,weatherlink.com 1.10,2013-01-21 12:14:00,
2013-01-21 07:29:00,9.1,2.0,29.96,WNW,287,0.0,5.0,71,0.00,,,0.00,14,weatherlink.com 1.10,2013-01-21 12:29:00,
2013-01-21 07:47:00,9.4,2.0,29.97,NW,306,0.0,6.0,71,0.00,,,0.00,51,weatherlink.com 1.10,2013-01-21 12:47:00,
2013-01-21 08:02:00,9.8,2.0,29.97,WSW,257,1.0,4.0,70,0.00,,,0.00,72,weatherlink.com 1.10,2013-01-21 13:02:00,
2013-01-21 08:16:00,9.8,2.0,29.97,NNW,337,1.0,9.0,71,0.00,,,0.00,49,weatherlink.com 1.10,2013-01-21 13:16:00,
2013-01-21 08:31:00,10.0,2.0,29.96,West,279,0.0,9.0,70,0.00,,,0.00,62,weatherlink.com 1.10,2013-01-21 13:31:00,
2013-01-21 08:46:00,12.1,3.0,29.97,NW,325,2.0,10.0,67,0.00,,,0.00,216,weatherlink.com 1.10,2013-01-21 13:46:00,
2013-01-21 09:01:00,13.2,3.0,29.99,NW,319,1.0,6.0,65,0.00,,,0.00,271,weatherlink.com 1.10,2013-01-21 14:01:00,
2013-01-21 09:16:00,13.2,3.0,29.98,WNW,298,0.0,9.0,65,0.00,,,0.00,297,weatherlink.com 1.10,2013-01-21 14:16:00,
2013-01-21 09:31:00,12.3,3.0,29.98,SSW,204,0.0,11.0,67,0.00,,,0.00,197,weatherlink.com 1.10,2013-01-21 14:31:00,
2013-01-21 10:01:00,12.8,4.0,29.98,WSW,239,2.0,8.0,67,0.00,,,0.00,348,weatherlink.com 1.10,2013-01-21 15:01:00,
2013-01-21 10:17:00,14.1,5.0,29.98,NNW,342,0.0,9.0,66,0.00,,,0.00,350,weatherlink.com 1.10,2013-01-21 15:17:00,
2013-01-21 10:32:00,15.3,5.0,29.98,South,188,1.0,14.0,63,0.00,,,0.00,469,weatherlink.com 1.10,2013-01-21 15:32:00,
2013-01-21 10:47:00,14.6,4.0,29.98,South,190,8.0,13.0,63,0.00,,,0.00,272,weatherlink.com 1.10,2013-01-21 15:47:00,
2013-01-21 11:02:00,15.2,4.0,29.97,SSW,195,0.0,15.0,62,0.00,,,0.00,274,weatherlink.com 1.10,2013-01-21 16:02:00,
2013-01-21 11:18:00,15.7,5.0,29.96,WNW,299,2.0,7.0,62,0.00,,,0.00,264,weatherlink.com 1.10,2013-01-21 16:18:00,
2013-01-21 11:33:00,16.5,4.0,29.95,WSW,243,0.0,8.0,59,0.00,,,0.00,418,weatherlink.com 1.10,2013-01-21 16:33:00,
2013-01-21 11:48:00,16.9,4.0,29.94,NW,325,5.0,10.0,57,0.00,,,0.00,362,weatherlink.com 1.10,2013-01-21 16:48:00,
2013-01-21 12:18:00,16.7,4.0,29.93,WNW,298,0.0,11.0,57,0.00,,,0.00,267,weatherlink.com 1.10,2013-01-21 17:18:00,
2013-01-21 12:33:00,16.8,4.0,29.92,WSW,243,0.0,9.0,57,0.00,,,0.00,246,weatherlink.com 1.10,2013-01-21 17:33:00,
2013-01-21 12:49:00,16.5,4.0,29.91,South,187,5.0,13.0,59,0.00,,,0.00,227,weatherlink.com 1.10,2013-01-21 17:49:00,
2013-01-21 13:04:00,16.0,4.0,29.91,SSW,213,0.0,13.0,60,0.00,,,0.00,204,weatherlink.com 1.10,2013-01-21 18:04:00,
2013-01-21 13:19:00,16.2,4.0,29.90,South,186,6.0,11.0,59,0.00,,,0.00,197,weatherlink.com 1.10,2013-01-21 18:19:00,
2013-01-21 13:34:00,16.7,5.0,29.91,South,169,4.0,8.0,60,0.00,,,0.00,171,weatherlink.com 1.10,2013-01-21 18:34:00,
2013-01-21 13:51:00,16.9,5.0,29.90,West,265,1.0,5.0,60,0.00,,,0.00,142,weatherlink.com 1.10,2013-01-21 18:51:00,
2013-01-21 14:05:00,16.4,5.0,29.90,West,259,0.0,11.0,62,0.00,,,0.00,134,weatherlink.com 1.10,2013-01-21 19:05:00,
2013-01-21 14:21:00,15.8,6.0,29.90,NW,304,6.0,13.0,64,0.00,,,0.00,186,weatherlink.com 1.10,2013-01-21 19:21:00,
2013-01-21 14:36:00,16.1,5.0,29.90,South,173,4.0,8.0,62,0.00,,,0.00,120,weatherlink.com 1.10,2013-01-21 19:36:00,
2013-01-21 14:53:00,15.6,5.0,29.89,SSW,202,5.0,13.0,63,0.00,,,0.00,86,weatherlink.com 1.10,2013-01-21 19:53:00,
2013-01-21 15:05:00,15.6,5.0,29.89,SSW,194,0.0,8.0,64,0.00,,,0.00,63,weatherlink.com 1.10,2013-01-21 20:05:00,
2013-01-21 15:21:00,15.2,6.0,29.89,South,170,0.0,7.0,68,0.00,,,0.00,54,weatherlink.com 1.10,2013-01-21 20:21:00,
2013-01-21 15:37:00,14.5,8.0,29.88,SSW,193,1.0,9.0,75,0.00,,,0.00,42,weatherlink.com 1.10,2013-01-21 20:37:00,
2013-01-21 15:51:00,14.2,9.0,29.89,SSE,162,1.0,7.0,79,0.00,,,0.00,26,weatherlink.com 1.10,2013-01-21 20:51:00,
2013-01-21 16:07:00,14.0,9.0,29.88,SSE,165,4.0,7.0,81,0.00,,,0.00,21,weatherlink.com 1.10,2013-01-21 21:07:00,
2013-01-21 16:21:00,13.7,10.0,29.88,South,173,0.0,8.0,84,0.00,,,0.00,11,weatherlink.com 1.10,2013-01-21 21:21:00,
2013-01-21 16:37:00,13.3,10.0,29.87,SSE,165,0.0,6.0,85,0.00,,,0.00,0,weatherlink.com 1.10,2013-01-21 21:37:00,
2013-01-21 16:52:00,13.2,10.0,29.87,SSE,167,3.0,5.0,86,0.00,,,0.00,0,weatherlink.com 1.10,2013-01-21 21:52:00,
2013-01-21 17:07:00,13.1,10.0,29.86,South,191,1.0,6.0,87,0.00,,,0.00,0,weatherlink.com 1.10,2013-01-21 22:07:00,
2013-01-21 17:22:00,13.0,10.0,29.87,South,173,0.0,5.0,87,0.00,,,0.00,0,weatherlink.com 1.10,2013-01-21 22:22:00,
2013-01-21 17:37:00,13.0,10.0,29.87,South,172,0.0,1.0,88,0.00,,,0.00,0,weatherlink.com 1.10,2013-01-21 22:37:00,
2013-01-21 17:53:00,13.0,10.0,29.88,South,174,0.0,5.0,88,0.00,,,0.00,0,weatherlink.com 1.10,2013-01-21 22:53:00,
2013-01-21 18:08:00,12.9,10.0,29.88,South,174,2.0,3.0,88,0.00,,,0.00,0,weatherlink.com 1.10,2013-01-21 23:08:00,
2013-01-21 18:23:00,12.8,10.0,29.87,South,173,2.0,6.0,89,0.00,,,0.00,0,weatherlink.com 1.10,2013-01-21 23:23:00,
2013-01-21 18:38:00,12.8,10.0,29.87,SSE,167,0.0,4.0,89,0.01,,,0.01,0,weatherlink.com 1.10,2013-01-21 23:38:00,
2013-01-21 18:53:00,12.9,10.0,29.86,South,191,1.0,6.0,89,0.01,,,0.01,0,weatherlink.com 1.10,2013-01-21 23:53:00,
2013-01-21 19:09:00,13.0,10.0,29.87,South,190,0.0,4.0,89,0.01,,,0.01,0,weatherlink.com 1.10,2013-01-22 00:09:00,
2013-01-21 19:23:00,13.0,10.0,29.87,South,188,0.0,2.0,89,0.01,,,0.01,0,weatherlink.com 1.10,2013-01-22 00:23:00,
2013-01-21 19:39:00,13.1,11.0,29.86,South,188,0.0,0.0,89,0.00,,,0.01,0,weatherlink.com 1.10,2013-01-22 00:39:00,
2013-01-21 19:54:00,13.1,11.0,29.86,South,188,0.0,1.0,89,0.00,,,0.01,0,weatherlink.com 1.10,2013-01-22 00:54:00,
2013-01-21 20:09:00,13.2,11.0,29.86,South,188,0.0,0.0,89,0.00,,,0.01,0,weatherlink.com 1.10,2013-01-22 01:09:00,
2013-01-21 20:24:00,13.0,10.0,29.85,South,188,0.0,0.0,88,0.00,,,0.01,0,weatherlink.com 1.10,2013-01-22 01:24:00,
2013-01-21 20:39:00,12.8,10.0,29.84,South,188,0.0,0.0,88,0.00,,,0.01,0,weatherlink.com 1.10,2013-01-22 01:39:00,
2013-01-21 20:54:00,12.8,10.0,29.84,South,188,0.0,2.0,88,0.00,,,0.01,0,weatherlink.com 1.10,2013-01-22 01:54:00,
2013-01-21 21:10:00,13.0,10.0,29.83,South,173,0.0,1.0,89,0.00,,,0.01,0,weatherlink.com 1.10,2013-01-22 02:10:00,
2013-01-21 21:25:00,12.7,10.0,29.82,South,173,0.0,0.0,89,0.00,,,0.01,0,weatherlink.com 1.10,2013-01-22 02:25:00,
2013-01-21 21:40:00,12.8,10.0,29.82,South,173,0.0,0.0,89,0.00,,,0.01,0,weatherlink.com 1.10,2013-01-22 02:40:00,
2013-01-21 21:55:00,13.0,10.0,29.80,South,173,0.0,4.0,89,0.00,,,0.01,0,weatherlink.com 1.10,2013-01-22 02:55:00,
2013-01-21 22:10:00,13.9,11.0,29.79,SSE,160,0.0,7.0,88,0.00,,,0.01,0,weatherlink.com 1.10,2013-01-22 03:10:00,
2013-01-21 22:25:00,13.7,10.0,29.78,NE,49,0.0,5.0,86,0.00,,,0.01,0,weatherlink.com 1.10,2013-01-22 03:25:00,
2013-01-21 22:40:00,14.3,11.0,29.77,North,350,0.0,12.0,85,0.00,,,0.01,0,weatherlink.com 1.10,2013-01-22 03:40:00,
2013-01-21 22:55:00,13.8,10.0,29.76,ENE,61,0.0,6.0,85,0.00,,,0.01,0,weatherlink.com 1.10,2013-01-22 03:55:00,
2013-01-21 23:10:00,14.3,10.0,29.75,North,9,2.0,9.0,83,0.00,,,0.01,0,weatherlink.com 1.10,2013-01-22 04:10:00,
2013-01-21 23:25:00,14.3,10.0,29.76,SSE,159,0.0,10.0,83,0.00,,,0.01,0,weatherlink.com 1.10,2013-01-22 04:25:00,
2013-01-21 23:40:00,13.1,10.0,29.75,SSE,156,3.0,7.0,86,0.00,,,0.01,0,weatherlink.com 1.10,2013-01-22 04:40:00,
2013-01-21 23:55:00,12.4,10.0,29.74,South,183,1.0,6.0,89,0.00,,,0.01,0,weatherlink.com 1.10,2013-01-22 04:55:00,